Zionville, NC (28698)

11:32 AM EDT on May 25, 2015 (GMT -0400)
Trade | | Change Station
CLOSE
Current Station
Personal Weather Station
Location: Trade, TN
Elevation: 3143 ft
Nearby Weather Stations

Elev 3143 ft 36.38 °N, 81.75 °W | Updated 1 minute ago

Clear
Clear
70.5 °F
Feels Like 77 °F
N
9.6
Wind Variable Wind from South
Gusts 15.2 mph

Today
High -- | Low -- °F
--% Chance of Precip.
Yesterday
High -- | Low -- °F
Precip. -- in
6:13 AM 8:34 PM
Waxing Crescent, 49% visible
Pressure 30.38 in
Visibility 10.0 miles
Clouds Scattered Clouds 2300 ft
Heat Index 77 °F
Dew Point 54 °F
Humidity 55%
Rainfall 0.00 in
Snow Depth Not available.
UV 8 out of 12
Pollen 7.50 out of 12
Air Quality Not available.
Flu Activity No Activity
METAR KTNB 251515Z AUTO 18006KT 10SM SCT023 20/12 A3038 RMK AO2 T02010119

More Conditions Fewer Conditions

Pressure 30.38 in
Visibility 10.0 miles
Clouds Scattered Clouds 2300 ft
Heat Index 77 °F
Dew Point 54 °F
Humidity 55%
Rainfall 0.00 in
Snow Depth Not available.
UV 8 out of 12
Pollen 7.50 out of 12
Air Quality Not available.
Flu Activity No Activity
METAR KTNB 251515Z AUTO 18006KT 10SM SCT023 20/12 A3038 RMK AO2 T02010119

More Conditions Fewer Conditions

10-Day Weather Forecast

Almanac

Astronomy

May. 25, 2015 Rise Set
Actual Time
Civil Twilight
Nautical Twilight
Astronomical Twilight
Moon
Length of Visible Light
Length of Day
Tomorrow will be .
, % of the Moon is Illuminated

Today's Extremes

State Highs State Lows

Community

WunderPhotos

Upload Photos

1,824,030 photos uploaded!

WunderBlogs® & News

Nearby

Air Quality

  Air Quality AQ Index Pollutant
Not available.

Snow Depth

Station Depth Elevation

Earthquake Activity

City Distance Mag. Time & Date
Minimum magnitude displayed is 2.5.

Coastal Water Temperatures

Place Temperature

Stations

Nearby Weather Stations

Station Location Temp. Windchill Dew Point Humidity Wind Precip. Elev Updated Type